createdAt,value
2023-03-29T00:00:04.925Z,61.80
2023-03-29T00:01:04.915Z,61.91
2023-03-29T00:02:04.946Z,62.10
2023-03-29T00:03:05.111Z,62.13
2023-03-29T00:04:05.008Z,62.13
2023-03-29T00:05:04.876Z,61.97
2023-03-29T00:06:04.863Z,62.18
2023-03-29T00:07:05.066Z,62.00
2023-03-29T00:08:04.864Z,62.04
2023-03-29T00:09:04.831Z,62.26
2023-03-29T00:10:04.836Z,62.16
2023-03-29T00:11:05.051Z,61.64
2023-03-29T00:12:04.805Z,61.14
2023-03-29T00:13:04.760Z,61.06
2023-03-29T00:14:04.760Z,61.00
2023-03-29T00:15:04.752Z,61.02
2023-03-29T00:16:04.735Z,61.04
2023-03-29T00:17:04.741Z,61.17
2023-03-29T00:18:04.739Z,60.90
2023-03-29T00:19:04.698Z,60.81
2023-03-29T00:20:04.675Z,60.86
2023-03-29T00:21:04.809Z,60.78
2023-03-29T00:22:04.642Z,60.96
2023-03-29T00:23:04.638Z,61.29
2023-03-29T00:24:04.630Z,61.44
2023-03-29T00:25:04.609Z,61.53
2023-03-29T00:26:07.151Z,62.12
2023-03-29T00:27:04.583Z,62.71
2023-03-29T00:28:04.565Z,63.54
2023-03-29T00:29:04.571Z,64.46
2023-03-29T00:30:04.543Z,65.08
2023-03-29T00:31:04.808Z,65.17
2023-03-29T00:32:04.519Z,65.31
2023-03-29T00:33:04.562Z,65.57
2023-03-29T00:34:04.510Z,66.01
2023-03-29T00:35:04.480Z,66.78
2023-03-29T00:36:04.608Z,67.02
2023-03-29T00:37:04.477Z,67.32
2023-03-29T00:38:04.451Z,67.14
2023-03-29T00:39:04.444Z,67.19
2023-03-29T00:40:04.420Z,67.22
2023-03-29T00:41:04.613Z,67.10
2023-03-29T00:42:04.404Z,67.43
2023-03-29T00:43:04.381Z,67.25
2023-03-29T00:44:04.387Z,67.45
2023-03-29T00:45:04.366Z,67.38
2023-03-29T00:46:04.354Z,67.57
2023-03-29T00:47:04.327Z,68.08
2023-03-29T00:48:04.340Z,68.17
2023-03-29T00:49:04.324Z,68.28
2023-03-29T00:50:04.330Z,68.34
2023-03-29T00:51:04.589Z,68.43
2023-03-29T00:52:04.284Z,68.70
2023-03-29T00:53:04.265Z,69.08
2023-03-29T00:54:04.243Z,69.38
2023-03-29T00:55:04.269Z,69.73
2023-03-29T00:56:04.219Z,70.03
2023-03-29T00:57:04.349Z,70.52
2023-03-29T00:58:04.191Z,70.91
2023-03-29T00:59:04.180Z,71.37
2023-03-29T01:00:04.166Z,71.77
2023-03-29T01:01:04.418Z,72.09
2023-03-29T01:02:04.253Z,72.36
2023-03-29T01:03:04.251Z,72.61
2023-03-29T01:04:04.306Z,72.91
2023-03-29T01:05:04.123Z,73.30
2023-03-29T01:06:04.100Z,73.88
2023-03-29T01:07:04.152Z,74.49
2023-03-29T01:08:04.062Z,75.06
2023-03-29T01:09:04.098Z,75.53
2023-03-29T01:10:04.062Z,75.74
2023-03-29T01:11:04.269Z,75.94
2023-03-29T01:12:04.060Z,76.15
2023-03-29T01:13:04.033Z,76.14
2023-03-29T01:14:04.021Z,76.34
2023-03-29T01:15:04.002Z,76.52
2023-03-29T01:16:04.063Z,76.63
2023-03-29T01:17:03.975Z,76.85
2023-03-29T01:18:04.012Z,77.01
2023-03-29T01:19:03.939Z,77.04
2023-03-29T01:20:03.935Z,77.16
2023-03-29T01:21:04.097Z,77.34
2023-03-29T01:22:03.905Z,77.47
2023-03-29T01:23:03.906Z,77.36
2023-03-29T01:24:03.889Z,77.51
2023-03-29T01:25:03.865Z,77.65
2023-03-29T01:26:03.870Z,77.79
2023-03-29T01:27:03.845Z,77.89
2023-03-29T01:28:03.811Z,77.95
2023-03-29T01:29:03.798Z,78.01
2023-03-29T01:30:03.795Z,78.07
2023-03-29T01:31:04.032Z,78.08
2023-03-29T01:32:03.813Z,78.15
2023-03-29T01:33:03.824Z,78.09
2023-03-29T01:34:03.767Z,78.04
2023-03-29T01:35:03.749Z,78.04
2023-03-29T01:36:03.737Z,78.08
2023-03-29T01:37:03.699Z,78.22
2023-03-29T01:38:03.688Z,78.35
2023-03-29T01:39:03.696Z,78.49
2023-03-29T01:40:03.659Z,78.52
2023-03-29T01:41:04.180Z,78.59
2023-03-29T01:42:03.637Z,78.52
2023-03-29T01:43:03.628Z,78.38
2023-03-29T01:44:03.610Z,78.36
2023-03-29T01:45:03.615Z,78.33
2023-03-29T01:46:03.636Z,78.44
2023-03-29T01:47:03.576Z,78.61
2023-03-29T01:48:03.618Z,78.63
2023-03-29T01:49:03.567Z,78.72
2023-03-29T01:50:03.595Z,78.76
2023-03-29T01:51:03.788Z,78.66
2023-03-29T01:52:03.522Z,78.55
2023-03-29T01:53:03.496Z,78.50
2023-03-29T01:54:03.472Z,78.55
2023-03-29T01:55:03.472Z,78.41
2023-03-29T01:56:03.458Z,78.44
2023-03-29T01:57:03.483Z,78.48
2023-03-29T01:58:03.426Z,78.43
2023-03-29T01:59:03.417Z,78.36
2023-03-29T02:00:03.471Z,78.21
2023-03-29T02:01:03.671Z,77.97
2023-03-29T02:02:03.382Z,77.97
2023-03-29T02:03:03.457Z,78.05
2023-03-29T02:04:03.367Z,78.31
2023-03-29T02:05:03.344Z,78.47
2023-03-29T02:06:03.348Z,78.63
2023-03-29T02:07:03.339Z,78.69
2023-03-29T02:08:03.291Z,78.68
2023-03-29T02:09:03.310Z,78.67
2023-03-29T02:10:03.276Z,78.44
2023-03-29T02:11:03.390Z,78.40
2023-03-29T02:12:03.258Z,78.52
2023-03-29T02:13:03.234Z,78.79
2023-03-29T02:14:03.255Z,79.14
2023-03-29T02:15:03.230Z,79.11
2023-03-29T02:16:03.300Z,78.75
2023-03-29T02:17:03.187Z,78.69
2023-03-29T02:18:03.201Z,78.76
2023-03-29T02:19:03.164Z,78.79
2023-03-29T02:20:03.141Z,78.91
2023-03-29T02:21:03.416Z,78.99
2023-03-29T02:22:03.132Z,79.11
2023-03-29T02:23:03.117Z,79.20
2023-03-29T02:24:03.092Z,79.23
2023-03-29T02:25:03.127Z,79.26
2023-03-29T02:26:03.078Z,79.19
2023-03-29T02:27:03.052Z,79.07
2023-03-29T02:28:03.065Z,79.05
2023-03-29T02:29:03.038Z,79.01
2023-03-29T02:30:03.046Z,78.85
2023-03-29T02:31:03.359Z,78.81
2023-03-29T02:32:02.994Z,78.80
2023-03-29T02:33:03.049Z,78.81
2023-03-29T02:34:02.969Z,78.76
2023-03-29T02:35:02.964Z,78.63
2023-03-29T02:36:02.993Z,78.75
2023-03-29T02:37:02.944Z,78.89
2023-03-29T02:38:02.924Z,78.81
2023-03-29T02:39:02.906Z,78.78
2023-03-29T02:40:02.889Z,78.80
2023-03-29T02:41:03.211Z,78.71
2023-03-29T02:42:02.865Z,78.84
2023-03-29T02:43:02.858Z,79.03
2023-03-29T02:44:02.846Z,79.05
2023-03-29T02:45:02.838Z,79.07
2023-03-29T02:46:02.847Z,79.12
2023-03-29T02:47:02.986Z,79.25
2023-03-29T02:48:02.938Z,79.34
2023-03-29T02:49:02.792Z,79.20
2023-03-29T02:50:02.864Z,79.16
2023-03-29T02:51:03.029Z,79.10
2023-03-29T02:52:02.747Z,79.10
2023-03-29T02:53:02.758Z,79.23
2023-03-29T02:54:02.730Z,79.21
2023-03-29T02:55:02.715Z,79.30
2023-03-29T02:56:02.712Z,79.40
2023-03-29T02:57:02.720Z,79.38
2023-03-29T02:58:02.707Z,79.46
2023-03-29T02:59:02.653Z,79.47
2023-03-29T03:00:02.639Z,79.32
2023-03-29T03:01:02.866Z,79.25
2023-03-29T03:02:02.673Z,79.28
2023-03-29T03:03:02.662Z,79.40
2023-03-29T03:04:02.658Z,79.45
2023-03-29T03:05:02.596Z,79.42
2023-03-29T03:06:02.573Z,79.38
2023-03-29T03:07:02.556Z,79.38
2023-03-29T03:08:02.559Z,79.36
2023-03-29T03:09:02.531Z,79.35
2023-03-29T03:10:02.532Z,79.27
2023-03-29T03:11:02.848Z,79.29
2023-03-29T03:12:02.530Z,79.35
2023-03-29T03:13:02.487Z,79.23
2023-03-29T03:14:02.474Z,79.03
2023-03-29T03:15:02.551Z,79.07
2023-03-29T03:16:02.479Z,79.21
2023-03-29T03:17:04.525Z,79.27
2023-03-29T03:18:02.446Z,79.38
2023-03-29T03:19:02.408Z,79.33
2023-03-29T03:20:02.415Z,79.11
2023-03-29T03:21:02.589Z,79.07
2023-03-29T03:22:02.359Z,79.10
2023-03-29T03:23:02.384Z,79.14
2023-03-29T03:24:02.361Z,79.01
2023-03-29T03:25:02.320Z,78.84
2023-03-29T03:26:02.337Z,78.73
2023-03-29T03:27:02.297Z,78.73
2023-03-29T03:28:02.292Z,78.84
2023-03-29T03:29:02.286Z,78.91
2023-03-29T03:30:02.298Z,79.19
2023-03-29T03:31:02.449Z,79.21
2023-03-29T03:32:02.274Z,79.25
2023-03-29T03:33:02.247Z,79.10
2023-03-29T03:34:02.215Z,78.99
2023-03-29T03:35:02.231Z,79.11
2023-03-29T03:36:02.224Z,79.25
2023-03-29T03:37:02.172Z,79.12
2023-03-29T03:38:02.147Z,79.07
2023-03-29T03:39:02.139Z,79.25
2023-03-29T03:40:02.185Z,79.35
2023-03-29T03:41:02.491Z,79.53
2023-03-29T03:42:02.102Z,79.53
2023-03-29T03:43:02.100Z,79.62
2023-03-29T03:44:02.088Z,79.59
2023-03-29T03:45:02.071Z,79.57
2023-03-29T03:46:02.158Z,79.56
2023-03-29T03:47:02.037Z,79.53
2023-03-29T03:48:02.081Z,79.66
2023-03-29T03:49:02.019Z,79.65
2023-03-29T03:50:02.039Z,79.63
2023-03-29T03:51:02.162Z,79.78
2023-03-29T03:52:01.968Z,79.66
2023-03-29T03:53:01.959Z,79.81
2023-03-29T03:54:02.002Z,79.80
2023-03-29T03:55:01.997Z,79.52
2023-03-29T03:56:01.933Z,79.60
2023-03-29T03:57:01.921Z,79.77
2023-03-29T03:58:01.904Z,79.88
2023-03-29T03:59:01.890Z,79.94
2023-03-29T04:00:01.872Z,80.03
2023-03-29T04:01:02.035Z,80.25
2023-03-29T04:02:01.887Z,80.30
2023-03-29T04:03:01.941Z,80.14
2023-03-29T04:04:01.913Z,79.95
2023-03-29T04:05:01.861Z,79.81
2023-03-29T04:06:01.816Z,79.66
2023-03-29T04:07:01.785Z,79.72
2023-03-29T04:08:01.789Z,79.67
2023-03-29T04:09:01.769Z,79.81
2023-03-29T04:10:01.761Z,79.65
2023-03-29T04:11:01.953Z,79.55
2023-03-29T04:12:01.728Z,79.71
2023-03-29T04:13:01.709Z,79.66
2023-03-29T04:14:01.698Z,79.90
2023-03-29T04:15:01.678Z,79.89
2023-03-29T04:16:02.027Z,79.89
2023-03-29T04:17:01.690Z,79.97
2023-03-29T04:18:01.748Z,79.93
2023-03-29T04:19:01.708Z,79.82
2023-03-29T04:20:01.635Z,79.74
2023-03-29T04:21:01.837Z,79.85
2023-03-29T04:22:01.595Z,79.78
2023-03-29T04:23:01.594Z,79.74
2023-03-29T04:24:01.581Z,79.57
2023-03-29T04:25:01.547Z,79.63
2023-03-29T04:26:01.549Z,79.50
2023-03-29T04:27:01.531Z,79.47
2023-03-29T04:28:01.518Z,79.60
2023-03-29T04:29:01.503Z,79.54
2023-03-29T04:30:01.500Z,79.50
2023-03-29T04:31:01.769Z,79.52
2023-03-29T04:32:01.477Z,79.42
2023-03-29T04:33:01.493Z,79.30
2023-03-29T04:34:01.437Z,79.12
2023-03-29T04:35:01.432Z,78.92
2023-03-29T04:36:01.462Z,78.80
2023-03-29T04:37:01.430Z,79.02
2023-03-29T04:38:01.400Z,78.99
2023-03-29T04:39:01.611Z,78.91
2023-03-29T04:40:01.375Z,79.10
2023-03-29T04:41:01.536Z,79.05
2023-03-29T04:42:01.367Z,79.08
2023-03-29T04:43:01.339Z,79.23
2023-03-29T04:44:01.315Z,79.23
2023-03-29T04:45:01.379Z,79.20
2023-03-29T04:46:01.347Z,79.16
2023-03-29T04:47:01.280Z,79.16
2023-03-29T04:48:01.328Z,79.03
2023-03-29T04:49:01.252Z,79.01
2023-03-29T04:50:01.266Z,79.06
2023-03-29T04:51:01.368Z,79.00
2023-03-29T04:52:01.204Z,79.02
2023-03-29T04:53:01.198Z,79.07
2023-03-29T04:54:01.213Z,78.88
2023-03-29T04:55:01.209Z,78.69
2023-03-29T04:56:01.174Z,78.58
2023-03-29T04:57:01.187Z,78.43
2023-03-29T04:58:01.135Z,78.27
2023-03-29T04:59:01.137Z,78.24
2023-03-29T05:00:01.169Z,78.20
2023-03-29T05:01:01.330Z,78.28
2023-03-29T05:02:01.115Z,78.18
2023-03-29T05:03:01.115Z,78.17
2023-03-29T05:04:01.103Z,78.16
2023-03-29T05:05:01.045Z,78.05
2023-03-29T05:06:01.048Z,77.93
2023-03-29T05:07:01.029Z,77.96
2023-03-29T05:08:01.021Z,77.94
2023-03-29T05:09:00.992Z,77.88
2023-03-29T05:10:01.046Z,77.86
2023-03-29T05:11:01.228Z,77.93
2023-03-29T05:12:00.975Z,78.04
2023-03-29T05:13:00.957Z,78.00
2023-03-29T05:14:00.960Z,77.85
2023-03-29T05:15:00.967Z,77.78
2023-03-29T05:16:00.948Z,77.74
2023-03-29T05:17:00.893Z,77.85
2023-03-29T05:18:00.966Z,77.76
2023-03-29T05:19:00.876Z,77.67
2023-03-29T05:20:00.874Z,77.55
2023-03-29T05:21:01.062Z,77.40
2023-03-29T05:22:00.909Z,77.38
2023-03-29T05:23:00.818Z,77.39
2023-03-29T05:24:00.821Z,77.41
2023-03-29T05:25:00.803Z,77.31
2023-03-29T05:26:00.792Z,77.18
2023-03-29T05:27:00.779Z,77.08
2023-03-29T05:28:00.796Z,77.02
2023-03-29T05:29:00.752Z,77.08
2023-03-29T05:30:00.725Z,77.19
2023-03-29T05:31:01.173Z,77.07
2023-03-29T05:32:00.777Z,77.10
2023-03-29T05:33:00.724Z,77.02
2023-03-29T05:34:00.702Z,77.06
2023-03-29T05:35:00.658Z,77.02
2023-03-29T05:36:00.655Z,77.02
2023-03-29T05:37:00.654Z,76.97
2023-03-29T05:38:00.638Z,76.99
2023-03-29T05:39:00.606Z,77.17
2023-03-29T05:40:05.753Z,77.30
2023-03-29T05:41:00.815Z,77.22
2023-03-29T05:42:00.585Z,77.12
2023-03-29T05:43:00.624Z,77.15
2023-03-29T05:44:00.572Z,76.97
2023-03-29T05:45:00.541Z,76.97
2023-03-29T05:46:00.579Z,76.99
2023-03-29T05:47:00.512Z,76.88
2023-03-29T05:48:00.574Z,77.03
2023-03-29T05:49:00.550Z,76.99
2023-03-29T05:50:00.513Z,76.88
2023-03-29T05:51:00.657Z,76.75
2023-03-29T05:52:00.473Z,76.84
2023-03-29T05:53:00.453Z,76.79
2023-03-29T05:54:00.449Z,76.74
2023-03-29T05:55:00.409Z,76.75
2023-03-29T05:56:00.429Z,76.60
2023-03-29T05:57:00.440Z,76.55
2023-03-29T05:58:00.383Z,76.60
2023-03-29T05:59:00.397Z,76.50
2023-03-29T06:00:00.364Z,76.41
2023-03-29T06:01:00.648Z,76.42
2023-03-29T06:02:00.475Z,76.45
2023-03-29T06:03:13.282Z,76.36
2023-03-29T06:04:00.386Z,76.30
2023-03-29T06:05:00.351Z,76.26
2023-03-29T06:06:00.275Z,76.28
2023-03-29T06:07:00.268Z,76.30
2023-03-29T06:08:00.245Z,76.20
2023-03-29T06:09:00.240Z,76.04
2023-03-29T06:10:00.225Z,76.13
2023-03-29T06:11:01.865Z,76.09
2023-03-29T06:12:00.196Z,76.01
2023-03-29T06:13:00.223Z,76.08
2023-03-29T06:14:00.196Z,75.89
2023-03-29T06:15:00.157Z,75.85
2023-03-29T06:16:00.154Z,75.96
2023-03-29T06:17:00.162Z,75.75
2023-03-29T06:18:00.269Z,75.89
2023-03-29T06:19:00.137Z,75.80
2023-03-29T06:20:00.141Z,75.77
2023-03-29T06:21:00.267Z,75.79
2023-03-29T06:22:00.097Z,75.69
2023-03-29T06:23:00.128Z,75.67
2023-03-29T06:24:00.101Z,75.61
2023-03-29T06:25:00.058Z,75.57
2023-03-29T06:26:00.121Z,75.45
2023-03-29T06:27:00.031Z,75.31
2023-03-29T06:28:00.018Z,75.42
2023-03-29T06:29:00.012Z,75.38
2023-03-29T06:29:59.982Z,75.39
2023-03-29T06:31:00.084Z,75.23
2023-03-29T06:31:59.964Z,75.11
2023-03-29T06:32:59.965Z,75.20
2023-03-29T06:33:59.981Z,75.19
2023-03-29T06:34:59.933Z,74.99
2023-03-29T06:35:59.982Z,74.89
2023-03-29T06:36:59.908Z,74.82
2023-03-29T06:37:59.881Z,74.74
2023-03-29T06:38:59.891Z,74.76
2023-03-29T06:39:59.883Z,74.88
2023-03-29T06:41:00.032Z,74.88
2023-03-29T06:42:03.512Z,74.69
2023-03-29T06:42:59.862Z,74.76
2023-03-29T06:43:59.802Z,74.77
2023-03-29T06:44:59.783Z,74.64
2023-03-29T06:45:59.853Z,74.52
2023-03-29T06:46:59.770Z,74.50
2023-03-29T06:47:59.795Z,74.57
2023-03-29T06:48:59.763Z,74.45
2023-03-29T06:49:59.727Z,74.29
2023-03-29T06:50:59.786Z,74.19
2023-03-29T06:51:59.713Z,74.07
2023-03-29T06:52:59.703Z,74.02
2023-03-29T06:53:59.681Z,74.06
2023-03-29T06:54:59.680Z,73.87
2023-03-29T06:55:59.676Z,73.68
2023-03-29T06:56:59.666Z,73.76
2023-03-29T06:58:01.809Z,73.58
2023-03-29T06:58:59.617Z,73.61
2023-03-29T06:59:59.611Z,73.53
2023-03-29T07:00:59.682Z,73.44
2023-03-29T07:01:59.606Z,73.19
2023-03-29T07:02:59.600Z,72.93
2023-03-29T07:03:59.610Z,72.71
2023-03-29T07:04:59.547Z,72.57
2023-03-29T07:05:59.521Z,72.56
2023-03-29T07:06:59.506Z,72.57
2023-03-29T07:07:59.495Z,72.71
2023-03-29T07:08:59.489Z,72.50
2023-03-29T07:09:59.492Z,72.30
2023-03-29T07:10:59.764Z,72.35
2023-03-29T07:11:59.441Z,72.26
2023-03-29T07:12:59.429Z,72.29
2023-03-29T07:13:59.443Z,72.26
2023-03-29T07:14:59.588Z,72.17
2023-03-29T07:15:59.496Z,72.21
2023-03-29T07:16:59.382Z,72.01
2023-03-29T07:17:59.444Z,71.82
2023-03-29T07:18:59.368Z,71.53
2023-03-29T07:19:59.499Z,71.46
2023-03-29T07:20:59.396Z,71.48
2023-03-29T07:21:59.313Z,71.41
2023-03-29T07:22:59.315Z,71.32
2023-03-29T07:23:59.309Z,71.18
2023-03-29T07:24:59.274Z,70.93
2023-03-29T07:25:59.287Z,70.90
2023-03-29T07:27:04.172Z,70.62
2023-03-29T07:27:59.402Z,70.21
2023-03-29T07:28:59.221Z,69.99
2023-03-29T07:29:59.216Z,69.81
2023-03-29T07:30:59.279Z,69.53
2023-03-29T07:31:59.195Z,69.45
2023-03-29T07:32:59.304Z,69.27
2023-03-29T07:33:59.163Z,69.02
2023-03-29T07:34:59.150Z,68.84
2023-03-29T07:35:59.210Z,68.70
2023-03-29T07:36:59.114Z,68.76
2023-03-29T07:37:59.124Z,68.65
2023-03-29T07:38:59.082Z,68.46
2023-03-29T07:39:59.084Z,68.30
2023-03-29T07:40:59.062Z,67.99
2023-03-29T07:41:59.045Z,67.86
2023-03-29T07:42:59.127Z,67.84
2023-03-29T07:43:59.021Z,67.66
2023-03-29T07:44:59.021Z,67.67
2023-03-29T07:45:59.061Z,67.70
2023-03-29T07:46:58.998Z,67.79
2023-03-29T07:47:59.137Z,67.90
2023-03-29T07:48:58.968Z,67.54
2023-03-29T07:49:58.959Z,68.13
2023-03-29T07:50:58.942Z,67.72
2023-03-29T07:51:58.915Z,67.62
2023-03-29T07:52:58.951Z,67.57
2023-03-29T07:53:58.879Z,67.56
2023-03-29T07:54:58.869Z,67.40
2023-03-29T07:55:58.866Z,67.33
2023-03-29T07:56:58.876Z,67.31
2023-03-29T07:57:58.832Z,67.29
2023-03-29T07:58:58.849Z,67.23
2023-03-29T07:59:58.827Z,66.95
2023-03-29T08:00:58.882Z,66.97
2023-03-29T08:01:58.782Z,67.21
2023-03-29T08:02:58.805Z,66.91
2023-03-29T08:03:58.910Z,66.89
2023-03-29T08:04:58.774Z,66.79
2023-03-29T08:05:58.740Z,67.06
2023-03-29T08:06:58.729Z,67.09
2023-03-29T08:07:58.738Z,66.75
2023-03-29T08:08:58.709Z,66.75
2023-03-29T08:09:58.689Z,66.64
2023-03-29T08:10:58.683Z,66.65
2023-03-29T08:11:58.659Z,66.56
2023-03-29T08:12:58.678Z,66.45
2023-03-29T08:13:58.624Z,66.58
2023-03-29T08:14:58.633Z,66.68
2023-03-29T08:15:58.627Z,66.74
2023-03-29T08:16:58.637Z,66.76
2023-03-29T08:17:58.697Z,66.64
2023-03-29T08:18:58.626Z,66.57
2023-03-29T08:19:58.574Z,66.52
2023-03-29T08:20:58.570Z,66.66
2023-03-29T08:21:58.592Z,66.56
2023-03-29T08:22:58.518Z,66.59
2023-03-29T08:23:58.529Z,66.69
2023-03-29T08:24:58.502Z,66.76
2023-03-29T08:25:58.475Z,66.83
2023-03-29T08:26:58.496Z,66.82
2023-03-29T08:27:58.451Z,66.89
2023-03-29T08:28:58.446Z,67.06
2023-03-29T08:29:58.432Z,67.06
2023-03-29T08:30:58.452Z,67.13
2023-03-29T08:31:58.440Z,67.19
2023-03-29T08:32:58.429Z,67.03
2023-03-29T08:33:58.387Z,67.15
2023-03-29T08:34:58.450Z,67.27
2023-03-29T08:35:58.370Z,66.91
2023-03-29T08:36:58.349Z,66.91
2023-03-29T08:37:58.320Z,66.88
2023-03-29T08:38:58.349Z,66.88
2023-03-29T08:39:58.341Z,66.94
2023-03-29T08:40:58.297Z,66.92
2023-03-29T08:41:58.286Z,66.84
2023-03-29T08:42:58.306Z,66.80
2023-03-29T08:43:58.280Z,66.87
2023-03-29T08:44:58.256Z,66.63
2023-03-29T08:45:58.258Z,66.57
2023-03-29T08:46:58.281Z,66.66
2023-03-29T08:47:58.287Z,66.59
2023-03-29T08:48:58.221Z,66.35
2023-03-29T08:49:58.179Z,66.24
2023-03-29T08:50:58.173Z,66.26
2023-03-29T08:51:58.155Z,66.05
2023-03-29T08:52:58.150Z,66.17
2023-03-29T08:53:58.136Z,66.36
2023-03-29T08:54:58.126Z,66.18
2023-03-29T08:55:58.114Z,66.38
2023-03-29T08:56:58.189Z,66.19
2023-03-29T08:57:58.072Z,66.13
2023-03-29T08:58:58.067Z,66.08
2023-03-29T08:59:58.064Z,65.83
2023-03-29T09:00:58.035Z,65.88
2023-03-29T09:01:58.079Z,66.00
2023-03-29T09:02:58.143Z,66.06
2023-03-29T09:03:58.104Z,65.78
2023-03-29T09:04:57.988Z,65.36
2023-03-29T09:05:57.961Z,65.16
2023-03-29T09:06:57.960Z,65.14
2023-03-29T09:07:57.948Z,65.24
2023-03-29T09:08:57.964Z,65.29
2023-03-29T09:09:57.926Z,65.26
2023-03-29T09:10:57.910Z,64.92
2023-03-29T09:11:57.904Z,64.64
2023-03-29T09:12:57.932Z,64.84
2023-03-29T09:13:57.871Z,65.03
2023-03-29T09:14:57.854Z,64.94
2023-03-29T09:15:57.855Z,65.10
2023-03-29T09:16:57.838Z,65.30
2023-03-29T09:17:57.863Z,64.97
2023-03-29T09:18:57.808Z,65.09
2023-03-29T09:19:57.798Z,65.04
2023-03-29T09:20:57.785Z,65.30
2023-03-29T09:21:57.767Z,65.23
2023-03-29T09:22:57.763Z,65.26
2023-03-29T09:23:57.744Z,65.25
2023-03-29T09:24:57.735Z,65.09
2023-03-29T09:25:57.712Z,65.33
2023-03-29T09:26:57.715Z,65.31
2023-03-29T09:27:57.703Z,65.25
2023-03-29T09:28:57.680Z,65.13
2023-03-29T09:29:57.661Z,65.27
2023-03-29T09:30:57.641Z,65.34
2023-03-29T09:31:57.689Z,65.28
2023-03-29T09:32:57.672Z,65.27
2023-03-29T09:33:57.616Z,65.06
2023-03-29T09:34:57.597Z,64.98
2023-03-29T09:35:57.618Z,65.20
2023-03-29T09:36:57.590Z,65.40
2023-03-29T09:37:57.562Z,65.50
2023-03-29T09:38:57.564Z,65.35
2023-03-29T09:39:57.569Z,65.19
2023-03-29T09:40:57.535Z,64.90
2023-03-29T09:41:57.511Z,64.94
2023-03-29T09:42:57.522Z,64.79
2023-03-29T09:43:57.516Z,64.94
2023-03-29T09:44:57.486Z,64.74
2023-03-29T09:45:57.501Z,64.62
2023-03-29T09:46:57.450Z,64.81
2023-03-29T09:47:57.507Z,64.71
2023-03-29T09:48:57.422Z,64.67
2023-03-29T09:49:57.416Z,64.66
2023-03-29T09:50:57.401Z,64.69
2023-03-29T09:51:57.392Z,64.37
2023-03-29T09:52:57.378Z,64.55
2023-03-29T09:53:57.371Z,64.64
2023-03-29T09:54:57.337Z,64.76
2023-03-29T09:55:57.339Z,64.89
2023-03-29T09:56:57.322Z,64.85
2023-03-29T09:57:57.334Z,64.65
2023-03-29T09:58:57.310Z,64.77
2023-03-29T09:59:57.271Z,64.78
2023-03-29T10:00:57.314Z,64.67
2023-03-29T10:01:57.275Z,64.64
2023-03-29T10:02:57.360Z,64.28
2023-03-29T10:03:57.279Z,64.41
2023-03-29T10:04:57.225Z,64.25
2023-03-29T10:05:57.214Z,64.17
2023-03-29T10:06:57.183Z,64.15
2023-03-29T10:07:57.167Z,64.25
2023-03-29T10:08:58.189Z,64.50
2023-03-29T10:09:57.184Z,64.21
2023-03-29T10:10:57.160Z,64.13
2023-03-29T10:11:57.161Z,64.02
2023-03-29T10:12:57.116Z,63.49
2023-03-29T10:13:57.103Z,62.92
2023-03-29T10:14:57.117Z,62.95
2023-03-29T10:15:57.069Z,62.76
2023-03-29T10:16:57.214Z,62.45
2023-03-29T10:17:57.103Z,62.10
2023-03-29T10:18:57.033Z,61.76
2023-03-29T10:19:57.090Z,61.76
2023-03-29T10:20:57.010Z,61.77
2023-03-29T10:21:57.007Z,61.87
2023-03-29T10:22:56.992Z,62.00
2023-03-29T10:23:56.985Z,61.66
2023-03-29T10:24:56.988Z,61.64
2023-03-29T10:25:56.993Z,61.80
2023-03-29T10:26:56.961Z,61.99
2023-03-29T10:27:56.917Z,62.10
2023-03-29T10:28:56.924Z,62.05
2023-03-29T10:29:56.917Z,62.16
2023-03-29T10:30:56.885Z,61.66
2023-03-29T10:31:56.908Z,60.91
2023-03-29T10:32:56.937Z,60.73
2023-03-29T10:33:56.850Z,60.68
2023-03-29T10:34:56.840Z,60.57
2023-03-29T10:35:56.845Z,60.72
2023-03-29T10:36:56.802Z,60.73
2023-03-29T10:37:56.804Z,60.76
2023-03-29T10:38:56.792Z,60.88
2023-03-29T10:39:56.770Z,60.68
2023-03-29T10:40:56.821Z,60.39
2023-03-29T10:41:56.842Z,60.59
2023-03-29T10:42:56.723Z,60.47
2023-03-29T10:43:56.750Z,60.14
2023-03-29T10:44:56.711Z,60.07
2023-03-29T10:45:56.763Z,59.40
2023-03-29T10:46:56.698Z,59.42
2023-03-29T10:47:56.737Z,59.42
2023-03-29T10:48:56.648Z,59.42
2023-03-29T10:49:57.277Z,59.24
2023-03-29T10:50:56.637Z,58.81
2023-03-29T10:51:56.652Z,58.93
2023-03-29T10:52:56.616Z,59.22
2023-03-29T10:53:56.579Z,59.13
2023-03-29T10:54:56.677Z,59.15
2023-03-29T10:55:56.602Z,59.17
2023-03-29T10:56:56.606Z,59.23
2023-03-29T10:57:56.532Z,59.09
2023-03-29T10:58:56.552Z,58.97
2023-03-29T10:59:56.501Z,59.01
2023-03-29T11:00:56.503Z,58.76
2023-03-29T11:01:56.513Z,58.75
2023-03-29T11:02:56.541Z,59.02
2023-03-29T11:03:56.618Z,59.05
2023-03-29T11:04:56.526Z,58.99
2023-03-29T11:05:56.453Z,58.34
2023-03-29T11:06:56.439Z,57.89
2023-03-29T11:07:56.415Z,58.11
2023-03-29T11:08:56.400Z,57.06
2023-03-29T11:09:56.381Z,56.79
2023-03-29T11:10:56.387Z,56.56
2023-03-29T11:12:08.326Z,56.88
2023-03-29T11:12:56.347Z,57.43
2023-03-29T11:13:58.637Z,57.27
2023-03-29T11:14:56.314Z,56.86
2023-03-29T11:15:56.379Z,56.66
2023-03-29T11:16:56.293Z,56.85
2023-03-29T11:17:56.364Z,56.93
2023-03-29T11:18:56.276Z,56.71
2023-03-29T11:19:56.271Z,56.22
2023-03-29T11:20:56.284Z,55.73
2023-03-29T11:21:56.228Z,55.60
2023-03-29T11:22:56.252Z,55.55
2023-03-29T11:23:56.201Z,55.52
2023-03-29T11:24:56.190Z,55.97
2023-03-29T11:25:56.268Z,55.90
2023-03-29T11:26:56.171Z,55.58
2023-03-29T11:27:56.159Z,55.54
2023-03-29T11:28:56.135Z,55.57
2023-03-29T11:29:56.164Z,55.46
2023-03-29T11:30:56.188Z,55.38
2023-03-29T11:31:56.167Z,55.67
2023-03-29T11:32:56.139Z,55.58
2023-03-29T11:33:56.078Z,55.22
2023-03-29T11:34:56.283Z,55.22
2023-03-29T11:35:56.155Z,54.31
2023-03-29T11:36:56.064Z,54.00
2023-03-29T11:37:56.028Z,54.05
2023-03-29T11:38:56.020Z,54.23
2023-03-29T11:39:56.296Z,54.49
2023-03-29T11:40:55.998Z,54.69
2023-03-29T11:41:56.039Z,54.71
2023-03-29T11:42:56.148Z,54.90
2023-03-29T11:43:56.001Z,54.57
2023-03-29T11:44:56.174Z,54.07
2023-03-29T11:45:56.011Z,53.85
2023-03-29T11:46:56.004Z,53.70
2023-03-29T11:47:55.958Z,53.78
2023-03-29T11:48:56.124Z,53.99
2023-03-29T11:49:55.894Z,53.66
2023-03-29T11:50:55.869Z,53.43
2023-03-29T11:51:55.858Z,52.85
2023-03-29T11:52:55.849Z,53.19
2023-03-29T11:53:55.881Z,52.72
2023-03-29T11:54:55.831Z,52.84
2023-03-29T11:55:55.804Z,52.51
2023-03-29T11:56:55.861Z,52.48
2023-03-29T11:57:55.784Z,52.59
2023-03-29T11:58:55.826Z,52.67
2023-03-29T11:59:55.796Z,52.63
2023-03-29T12:00:55.744Z,52.98
2023-03-29T12:01:55.752Z,53.12
2023-03-29T12:02:55.847Z,52.66
2023-03-29T12:03:55.829Z,52.49
2023-03-29T12:04:55.687Z,51.92
2023-03-29T12:05:55.676Z,51.83
2023-03-29T12:06:55.671Z,51.74
2023-03-29T12:07:55.661Z,51.86
2023-03-29T12:08:55.655Z,52.10
2023-03-29T12:09:55.621Z,52.17
2023-03-29T12:10:55.675Z,51.85
2023-03-29T12:11:55.628Z,51.29
2023-03-29T12:12:55.595Z,51.62
2023-03-29T12:13:55.602Z,51.53
2023-03-29T12:14:55.620Z,51.58
2023-03-29T12:15:55.565Z,51.29
2023-03-29T12:16:55.703Z,51.50
2023-03-29T12:17:55.548Z,51.06
2023-03-29T12:18:55.512Z,51.21
2023-03-29T12:19:55.633Z,51.98
2023-03-29T12:20:55.514Z,51.74
2023-03-29T12:21:55.503Z,51.43
2023-03-29T12:22:55.476Z,51.18
2023-03-29T12:23:55.463Z,50.43
2023-03-29T12:24:55.467Z,50.50
2023-03-29T12:25:55.454Z,50.63
2023-03-29T12:26:55.430Z,50.63
2023-03-29T12:27:55.425Z,50.57
2023-03-29T12:28:55.395Z,50.22
2023-03-29T12:29:55.383Z,49.95
2023-03-29T12:30:55.390Z,50.27
2023-03-29T12:31:55.410Z,50.24
2023-03-29T12:32:55.370Z,49.78
2023-03-29T12:33:55.353Z,49.90
2023-03-29T12:34:55.522Z,49.91
2023-03-29T12:35:55.379Z,49.86
2023-03-29T12:36:55.296Z,50.01
2023-03-29T12:37:55.329Z,50.13
2023-03-29T12:38:55.274Z,49.63
2023-03-29T12:39:55.279Z,49.60
2023-03-29T12:40:55.327Z,49.79
2023-03-29T12:41:55.261Z,50.08
2023-03-29T12:42:55.251Z,49.99
2023-03-29T12:43:55.265Z,50.02
2023-03-29T12:44:55.231Z,50.36
2023-03-29T12:45:55.272Z,50.30
2023-03-29T12:46:55.215Z,50.46
2023-03-29T12:47:55.237Z,50.46
2023-03-29T12:48:55.167Z,50.07
2023-03-29T12:49:55.149Z,50.39
2023-03-29T12:50:55.150Z,50.29
2023-03-29T12:51:55.124Z,50.59